sensor_id;sensor_type;location;lat;lon;timestamp;temperature;humidity
1578;DHT22;57623;53.608;10.004;2023-02-21T00:01:36;9.20;99.90
1578;DHT22;57623;53.608;10.004;2023-02-21T00:04:22;9.20;99.90
1578;DHT22;57623;53.608;10.004;2023-02-21T00:07:07;9.20;99.90
1578;DHT22;57623;53.608;10.004;2023-02-21T00:09:54;9.20;99.90
1578;DHT22;57623;53.608;10.004;2023-02-21T00:12:39;9.20;99.90
1578;DHT22;57623;53.608;10.004;2023-02-21T00:15:25;9.20;99.90
1578;DHT22;57623;53.608;10.004;2023-02-21T00:18:10;9.20;99.90
1578;DHT22;57623;53.608;10.004;2023-02-21T00:20:56;9.20;99.90
1578;DHT22;57623;53.608;10.004;2023-02-21T00:23:41;9.20;99.90
1578;DHT22;57623;53.608;10.004;2023-02-21T00:26:28;9.20;99.90
1578;DHT22;57623;53.608;10.004;2023-02-21T00:29:13;9.20;99.90
1578;DHT22;57623;53.608;10.004;2023-02-21T00:31:59;9.20;99.90
1578;DHT22;57623;53.608;10.004;2023-02-21T00:34:44;9.20;99.90
1578;DHT22;57623;53.608;10.004;2023-02-21T00:37:30;9.10;99.90
1578;DHT22;57623;53.608;10.004;2023-02-21T00:40:15;9.10;99.90
1578;DHT22;57623;53.608;10.004;2023-02-21T00:43:02;9.10;99.90
1578;DHT22;57623;53.608;10.004;2023-02-21T00:45:48;9.20;99.90
1578;DHT22;57623;53.608;10.004;2023-02-21T00:48:33;9.10;99.90
1578;DHT22;57623;53.608;10.004;2023-02-21T00:51:18;9.10;99.90
1578;DHT22;57623;53.608;10.004;2023-02-21T00:54:04;9.10;99.90
1578;DHT22;57623;53.608;10.004;2023-02-21T00:56:49;9.10;99.90
1578;DHT22;57623;53.608;10.004;2023-02-21T00:59:36;9.10;99.90
1578;DHT22;57623;53.608;10.004;2023-02-21T01:02:21;9.10;99.90
1578;DHT22;57623;53.608;10.004;2023-02-21T01:05:07;9.10;99.90
1578;DHT22;57623;53.608;10.004;2023-02-21T01:07:53;9.10;99.90
1578;DHT22;57623;53.608;10.004;2023-02-21T01:10:38;9.10;99.90
1578;DHT22;57623;53.608;10.004;2023-02-21T01:13:23;9.10;99.90
1578;DHT22;57623;53.608;10.004;2023-02-21T01:16:10;9.10;99.90
1578;DHT22;57623;53.608;10.004;2023-02-21T01:18:56;9.00;99.90
1578;DHT22;57623;53.608;10.004;2023-02-21T01:21:42;9.00;99.90
1578;DHT22;57623;53.608;10.004;2023-02-21T01:24:27;9.00;99.90
1578;DHT22;57623;53.608;10.004;2023-02-21T01:27:13;9.00;99.90
1578;DHT22;57623;53.608;10.004;2023-02-21T01:29:58;9.00;99.90
1578;DHT22;57623;53.608;10.004;2023-02-21T01:32:45;9.00;99.90
1578;DHT22;57623;53.608;10.004;2023-02-21T01:35:30;9.00;99.90
1578;DHT22;57623;53.608;10.004;2023-02-21T01:38:15;9.00;99.90
1578;DHT22;57623;53.608;10.004;2023-02-21T01:41:01;9.00;99.90
1578;DHT22;57623;53.608;10.004;2023-02-21T01:44:04;8.90;99.90
1578;DHT22;57623;53.608;10.004;2023-02-21T01:46:50;9.00;99.90
1578;DHT22;57623;53.608;10.004;2023-02-21T01:49:38;9.00;99.90
1578;DHT22;57623;53.608;10.004;2023-02-21T01:52:24;9.00;99.90
1578;DHT22;57623;53.608;10.004;2023-02-21T01:55:10;9.00;99.90
1578;DHT22;57623;53.608;10.004;2023-02-21T01:57:56;9.00;99.90
1578;DHT22;57623;53.608;10.004;2023-02-21T02:00:42;9.00;99.90
1578;DHT22;57623;53.608;10.004;2023-02-21T02:03:30;9.00;99.90
1578;DHT22;57623;53.608;10.004;2023-02-21T02:06:17;9.00;99.90
1578;DHT22;57623;53.608;10.004;2023-02-21T02:09:14;9.00;99.90
1578;DHT22;57623;53.608;10.004;2023-02-21T02:12:17;9.00;99.90
1578;DHT22;57623;53.608;10.004;2023-02-21T02:15:10;9.00;99.90
1578;DHT22;57623;53.608;10.004;2023-02-21T02:17:46;9.00;99.90
1578;DHT22;57623;53.608;10.004;2023-02-21T02:23:48;9.00;99.90
1578;DHT22;57623;53.608;10.004;2023-02-21T02:26:59;9.00;99.90
1578;DHT22;57623;53.608;10.004;2023-02-21T02:29:49;8.90;99.90
1578;DHT22;57623;53.608;10.004;2023-02-21T02:32:40;8.90;99.90
1578;DHT22;57623;53.608;10.004;2023-02-21T02:35:18;8.90;99.90
1578;DHT22;57623;53.608;10.004;2023-02-21T02:37:53;8.90;99.90
1578;DHT22;57623;53.608;10.004;2023-02-21T02:40:29;8.90;99.90
1578;DHT22;57623;53.608;10.004;2023-02-21T02:43:03;8.90;99.90
1578;DHT22;57623;53.608;10.004;2023-02-21T02:45:39;8.90;99.90
1578;DHT22;57623;53.608;10.004;2023-02-21T02:48:13;8.90;99.90
1578;DHT22;57623;53.608;10.004;2023-02-21T02:50:45;9.00;99.90
1578;DHT22;57623;53.608;10.004;2023-02-21T02:53:15;9.00;99.90
1578;DHT22;57623;53.608;10.004;2023-02-21T02:55:48;8.90;99.90
1578;DHT22;57623;53.608;10.004;2023-02-21T02:58:19;8.90;99.90
1578;DHT22;57623;53.608;10.004;2023-02-21T03:03:48;8.90;99.90
1578;DHT22;57623;53.608;10.004;2023-02-21T03:06:29;9.00;99.90
1578;DHT22;57623;53.608;10.004;2023-02-21T03:09:05;9.00;99.90
1578;DHT22;57623;53.608;10.004;2023-02-21T03:11:37;9.00;99.90
1578;DHT22;57623;53.608;10.004;2023-02-21T03:14:13;9.00;99.90
1578;DHT22;57623;53.608;10.004;2023-02-21T03:16:46;9.00;99.90
1578;DHT22;57623;53.608;10.004;2023-02-21T03:19:17;9.00;99.90
1578;DHT22;57623;53.608;10.004;2023-02-21T03:21:50;9.00;99.90
1578;DHT22;57623;53.608;10.004;2023-02-21T03:24:19;8.90;99.90
1578;DHT22;57623;53.608;10.004;2023-02-21T03:26:52;9.00;99.90
1578;DHT22;57623;53.608;10.004;2023-02-21T03:29:21;9.00;99.90
1578;DHT22;57623;53.608;10.004;2023-02-21T03:31:54;9.00;99.90
1578;DHT22;57623;53.608;10.004;2023-02-21T03:34:23;9.00;99.90
1578;DHT22;57623;53.608;10.004;2023-02-21T03:36:52;8.90;99.90
1578;DHT22;57623;53.608;10.004;2023-02-21T03:39:20;8.90;99.90
1578;DHT22;57623;53.608;10.004;2023-02-21T03:41:48;8.90;99.90
1578;DHT22;57623;53.608;10.004;2023-02-21T03:44:16;8.90;99.90
1578;DHT22;57623;53.608;10.004;2023-02-21T03:46:44;8.90;99.90
1578;DHT22;57623;53.608;10.004;2023-02-21T03:49:12;8.90;99.90
1578;DHT22;57623;53.608;10.004;2023-02-21T03:51:40;8.90;99.90
1578;DHT22;57623;53.608;10.004;2023-02-21T03:54:09;8.80;99.90
1578;DHT22;57623;53.608;10.004;2023-02-21T03:56:37;8.90;99.90
1578;DHT22;57623;53.608;10.004;2023-02-21T03:59:08;8.80;99.90
1578;DHT22;57623;53.608;10.004;2023-02-21T04:01:36;8.80;99.90
1578;DHT22;57623;53.608;10.004;2023-02-21T04:04:04;8.80;99.90
1578;DHT22;57623;53.608;10.004;2023-02-21T04:06:32;8.70;99.90
1578;DHT22;57623;53.608;10.004;2023-02-21T04:09:00;8.70;99.90
1578;DHT22;57623;53.608;10.004;2023-02-21T04:11:30;8.70;99.90
1578;DHT22;57623;53.608;10.004;2023-02-21T04:13:58;8.70;99.90
1578;DHT22;57623;53.608;10.004;2023-02-21T04:16:26;8.70;99.90
1578;DHT22;57623;53.608;10.004;2023-02-21T04:18:53;8.70;99.90
1578;DHT22;57623;53.608;10.004;2023-02-21T04:21:22;8.70;99.90
1578;DHT22;57623;53.608;10.004;2023-02-21T04:23:50;8.70;99.90
1578;DHT22;57623;53.608;10.004;2023-02-21T04:26:18;8.60;99.90
1578;DHT22;57623;53.608;10.004;2023-02-21T04:28:47;8.70;99.90
1578;DHT22;57623;53.608;10.004;2023-02-21T04:31:15;8.70;99.90
1578;DHT22;57623;53.608;10.004;2023-02-21T04:33:44;8.70;99.90
1578;DHT22;57623;53.608;10.004;2023-02-21T04:36:12;8.70;99.90
1578;DHT22;57623;53.608;10.004;2023-02-21T04:38:40;8.70;99.90
1578;DHT22;57623;53.608;10.004;2023-02-21T04:41:08;8.70;99.90
1578;DHT22;57623;53.608;10.004;2023-02-21T04:43:35;8.60;99.90
1578;DHT22;57623;53.608;10.004;2023-02-21T04:46:05;8.60;99.90
1578;DHT22;57623;53.608;10.004;2023-02-21T04:48:33;8.50;99.90
1578;DHT22;57623;53.608;10.004;2023-02-21T04:51:01;8.50;99.90
1578;DHT22;57623;53.608;10.004;2023-02-21T04:53:42;8.50;99.90
1578;DHT22;57623;53.608;10.004;2023-02-21T04:56:10;8.50;99.90
1578;DHT22;57623;53.608;10.004;2023-02-21T04:58:38;8.40;99.90
1578;DHT22;57623;53.608;10.004;2023-02-21T05:01:13;8.40;99.90
1578;DHT22;57623;53.608;10.004;2023-02-21T05:03:42;8.30;99.90
1578;DHT22;57623;53.608;10.004;2023-02-21T05:06:15;8.30;99.90
1578;DHT22;57623;53.608;10.004;2023-02-21T05:08:43;8.30;99.90
1578;DHT22;57623;53.608;10.004;2023-02-21T05:11:11;8.20;99.90
1578;DHT22;57623;53.608;10.004;2023-02-21T05:13:39;8.20;99.90
1578;DHT22;57623;53.608;10.004;2023-02-21T05:16:08;8.20;99.90
1578;DHT22;57623;53.608;10.004;2023-02-21T05:18:39;8.20;99.90
1578;DHT22;57623;53.608;10.004;2023-02-21T05:21:08;8.20;99.90
1578;DHT22;57623;53.608;10.004;2023-02-21T05:23:38;8.10;99.90
1578;DHT22;57623;53.608;10.004;2023-02-21T05:26:08;8.10;99.90
1578;DHT22;57623;53.608;10.004;2023-02-21T05:28:37;8.10;99.90
1578;DHT22;57623;53.608;10.004;2023-02-21T05:31:06;8.10;99.90
1578;DHT22;57623;53.608;10.004;2023-02-21T05:33:34;8.10;99.90
1578;DHT22;57623;53.608;10.004;2023-02-21T05:36:04;8.10;99.90
1578;DHT22;57623;53.608;10.004;2023-02-21T05:38:32;8.10;99.90
1578;DHT22;57623;53.608;10.004;2023-02-21T05:41:00;8.00;99.90
1578;DHT22;57623;53.608;10.004;2023-02-21T05:43:28;8.00;99.90
1578;DHT22;57623;53.608;10.004;2023-02-21T05:45:59;8.00;99.90
1578;DHT22;57623;53.608;10.004;2023-02-21T05:48:27;8.00;99.90
1578;DHT22;57623;53.608;10.004;2023-02-21T05:50:55;8.00;99.90
1578;DHT22;57623;53.608;10.004;2023-02-21T05:53:24;8.00;99.90
1578;DHT22;57623;53.608;10.004;2023-02-21T05:55:52;8.00;99.90
1578;DHT22;57623;53.608;10.004;2023-02-21T05:58:20;8.00;99.90
1578;DHT22;57623;53.608;10.004;2023-02-21T06:00:47;8.00;99.90
1578;DHT22;57623;53.608;10.004;2023-02-21T06:03:15;8.00;99.90
1578;DHT22;57623;53.608;10.004;2023-02-21T06:05:43;8.00;99.90
1578;DHT22;57623;53.608;10.004;2023-02-21T06:08:11;8.00;99.90
1578;DHT22;57623;53.608;10.004;2023-02-21T06:10:41;8.00;99.90
1578;DHT22;57623;53.608;10.004;2023-02-21T06:13:09;8.00;99.90
1578;DHT22;57623;53.608;10.004;2023-02-21T06:15:37;8.00;99.90
1578;DHT22;57623;53.608;10.004;2023-02-21T06:18:05;7.90;99.90
1578;DHT22;57623;53.608;10.004;2023-02-21T06:20:32;7.90;99.90
1578;DHT22;57623;53.608;10.004;2023-02-21T06:23:00;7.90;99.90
1578;DHT22;57623;53.608;10.004;2023-02-21T06:25:28;8.00;99.90
1578;DHT22;57623;53.608;10.004;2023-02-21T06:27:58;8.00;99.90
1578;DHT22;57623;53.608;10.004;2023-02-21T06:30:26;8.00;99.90
1578;DHT22;57623;53.608;10.004;2023-02-21T06:32:54;8.00;99.90
1578;DHT22;57623;53.608;10.004;2023-02-21T06:35:22;8.00;99.90
1578;DHT22;57623;53.608;10.004;2023-02-21T06:37:50;7.90;99.90
1578;DHT22;57623;53.608;10.004;2023-02-21T06:40:18;7.90;99.90
1578;DHT22;57623;53.608;10.004;2023-02-21T06:42:45;7.90;99.90
1578;DHT22;57623;53.608;10.004;2023-02-21T06:45:15;7.90;99.90
1578;DHT22;57623;53.608;10.004;2023-02-21T06:47:43;7.90;99.90
1578;DHT22;57623;53.608;10.004;2023-02-21T06:50:11;7.90;99.90
1578;DHT22;57623;53.608;10.004;2023-02-21T06:52:39;7.90;99.90
1578;DHT22;57623;53.608;10.004;2023-02-21T06:55:07;7.80;99.90
1578;DHT22;57623;53.608;10.004;2023-02-21T06:57:35;7.80;99.90
1578;DHT22;57623;53.608;10.004;2023-02-21T07:00:04;7.90;99.90
1578;DHT22;57623;53.608;10.004;2023-02-21T07:02:33;7.90;99.90
1578;DHT22;57623;53.608;10.004;2023-02-21T07:05:01;7.90;99.90
1578;DHT22;57623;53.608;10.004;2023-02-21T07:07:29;7.90;99.90
1578;DHT22;57623;53.608;10.004;2023-02-21T07:09:57;7.90;99.90
1578;DHT22;57623;53.608;10.004;2023-02-21T07:12:25;7.90;99.90
1578;DHT22;57623;53.608;10.004;2023-02-21T07:14:54;7.90;99.90
1578;DHT22;57623;53.608;10.004;2023-02-21T07:17:22;7.90;99.90
1578;DHT22;57623;53.608;10.004;2023-02-21T07:19:51;7.90;99.90
1578;DHT22;57623;53.608;10.004;2023-02-21T07:22:19;7.90;99.90
1578;DHT22;57623;53.608;10.004;2023-02-21T07:24:51;7.90;99.90
1578;DHT22;57623;53.608;10.004;2023-02-21T07:27:20;8.00;99.90
1578;DHT22;57623;53.608;10.004;2023-02-21T07:29:49;8.00;99.90
1578;DHT22;57623;53.608;10.004;2023-02-21T07:32:17;8.00;99.90
1578;DHT22;57623;53.608;10.004;2023-02-21T07:34:45;8.00;99.90
1578;DHT22;57623;53.608;10.004;2023-02-21T07:37:14;8.00;99.90
1578;DHT22;57623;53.608;10.004;2023-02-21T07:39:42;8.00;99.90
1578;DHT22;57623;53.608;10.004;2023-02-21T07:42:10;8.00;99.90
1578;DHT22;57623;53.608;10.004;2023-02-21T07:44:39;8.10;99.90
1578;DHT22;57623;53.608;10.004;2023-02-21T07:47:07;8.10;99.90
1578;DHT22;57623;53.608;10.004;2023-02-21T07:49:37;8.10;99.90
1578;DHT22;57623;53.608;10.004;2023-02-21T07:52:06;8.20;99.90
1578;DHT22;57623;53.608;10.004;2023-02-21T07:54:35;8.20;99.90
1578;DHT22;57623;53.608;10.004;2023-02-21T07:57:03;8.20;99.90
1578;DHT22;57623;53.608;10.004;2023-02-21T07:59:31;8.20;99.90
1578;DHT22;57623;53.608;10.004;2023-02-21T08:01:59;8.20;99.90
1578;DHT22;57623;53.608;10.004;2023-02-21T08:04:28;8.20;99.90
1578;DHT22;57623;53.608;10.004;2023-02-21T08:06:58;8.30;99.90
1578;DHT22;57623;53.608;10.004;2023-02-21T08:09:26;8.30;99.90
1578;DHT22;57623;53.608;10.004;2023-02-21T08:11:55;8.30;99.90
1578;DHT22;57623;53.608;10.004;2023-02-21T08:14:23;8.30;99.90
1578;DHT22;57623;53.608;10.004;2023-02-21T08:16:51;8.30;99.90
1578;DHT22;57623;53.608;10.004;2023-02-21T08:19:19;8.30;99.90
1578;DHT22;57623;53.608;10.004;2023-02-21T08:21:48;8.30;99.90
1578;DHT22;57623;53.608;10.004;2023-02-21T08:24:17;8.30;99.90
1578;DHT22;57623;53.608;10.004;2023-02-21T08:26:46;8.40;99.90
1578;DHT22;57623;53.608;10.004;2023-02-21T08:29:15;8.40;99.90
1578;DHT22;57623;53.608;10.004;2023-02-21T08:31:44;8.50;99.90
1578;DHT22;57623;53.608;10.004;2023-02-21T08:34:12;8.50;99.90
1578;DHT22;57623;53.608;10.004;2023-02-21T08:36:41;8.60;99.90
1578;DHT22;57623;53.608;10.004;2023-02-21T08:39:10;8.60;99.90
1578;DHT22;57623;53.608;10.004;2023-02-21T08:41:39;8.60;99.90
1578;DHT22;57623;53.608;10.004;2023-02-21T08:44:09;8.60;99.90
1578;DHT22;57623;53.608;10.004;2023-02-21T08:46:38;8.60;99.90
1578;DHT22;57623;53.608;10.004;2023-02-21T08:49:07;8.60;99.90
1578;DHT22;57623;53.608;10.004;2023-02-21T08:51:35;8.60;99.90
1578;DHT22;57623;53.608;10.004;2023-02-21T08:54:03;8.60;99.90
1578;DHT22;57623;53.608;10.004;2023-02-21T08:56:32;8.70;99.90
1578;DHT22;57623;53.608;10.004;2023-02-21T08:59:00;8.70;99.90
1578;DHT22;57623;53.608;10.004;2023-02-21T09:01:31;8.80;99.90
1578;DHT22;57623;53.608;10.004;2023-02-21T09:04:00;8.80;99.90
1578;DHT22;57623;53.608;10.004;2023-02-21T09:06:29;8.80;99.90
1578;DHT22;57623;53.608;10.004;2023-02-21T09:08:57;8.80;99.90
1578;DHT22;57623;53.608;10.004;2023-02-21T09:11:25;8.90;99.90
1578;DHT22;57623;53.608;10.004;2023-02-21T09:13:53;8.90;99.90
1578;DHT22;57623;53.608;10.004;2023-02-21T09:16:21;9.00;99.90
1578;DHT22;57623;53.608;10.004;2023-02-21T09:18:53;9.00;99.90
1578;DHT22;57623;53.608;10.004;2023-02-21T09:21:23;9.10;99.90
1578;DHT22;57623;53.608;10.004;2023-02-21T09:23:52;9.10;99.90
1578;DHT22;57623;53.608;10.004;2023-02-21T09:26:20;9.20;99.90
1578;DHT22;57623;53.608;10.004;2023-02-21T09:28:50;9.20;99.90
1578;DHT22;57623;53.608;10.004;2023-02-21T09:31:18;9.20;99.90
1578;DHT22;57623;53.608;10.004;2023-02-21T09:33:47;9.20;99.90
1578;DHT22;57623;53.608;10.004;2023-02-21T09:36:15;9.20;99.90
1578;DHT22;57623;53.608;10.004;2023-02-21T09:38:45;9.20;99.90
1578;DHT22;57623;53.608;10.004;2023-02-21T09:41:13;9.20;99.90
1578;DHT22;57623;53.608;10.004;2023-02-21T09:43:44;9.20;99.90
1578;DHT22;57623;53.608;10.004;2023-02-21T09:46:17;9.20;99.90
1578;DHT22;57623;53.608;10.004;2023-02-21T09:48:46;9.20;99.90
1578;DHT22;57623;53.608;10.004;2023-02-21T09:51:14;9.30;99.90
1578;DHT22;57623;53.608;10.004;2023-02-21T09:53:46;9.30;99.90
1578;DHT22;57623;53.608;10.004;2023-02-21T09:56:20;9.40;99.90
1578;DHT22;57623;53.608;10.004;2023-02-21T09:58:50;9.40;99.90
1578;DHT22;57623;53.608;10.004;2023-02-21T10:01:24;9.50;99.90
1578;DHT22;57623;53.608;10.004;2023-02-21T10:03:58;9.50;99.90
1578;DHT22;57623;53.608;10.004;2023-02-21T10:06:38;9.50;99.90
1578;DHT22;57623;53.608;10.004;2023-02-21T10:09:20;9.50;99.90
1578;DHT22;57623;53.608;10.004;2023-02-21T10:12:01;9.50;99.90
1578;DHT22;57623;53.608;10.004;2023-02-21T10:14:40;9.60;99.90
1578;DHT22;57623;53.608;10.004;2023-02-21T10:17:18;9.60;99.90
1578;DHT22;57623;53.608;10.004;2023-02-21T10:19:50;9.70;99.90
1578;DHT22;57623;53.608;10.004;2023-02-21T10:22:22;9.70;99.90
1578;DHT22;57623;53.608;10.004;2023-02-21T10:24:53;9.70;99.90
1578;DHT22;57623;53.608;10.004;2023-02-21T10:27:24;9.80;99.90
1578;DHT22;57623;53.608;10.004;2023-02-21T10:29:56;9.80;99.90
1578;DHT22;57623;53.608;10.004;2023-02-21T10:32:27;9.90;99.90
1578;DHT22;57623;53.608;10.004;2023-02-21T10:34:56;9.90;99.90
1578;DHT22;57623;53.608;10.004;2023-02-21T10:37:32;10.00;99.90
1578;DHT22;57623;53.608;10.004;2023-02-21T10:40:12;10.10;99.90
1578;DHT22;57623;53.608;10.004;2023-02-21T10:42:46;10.10;99.90
1578;DHT22;57623;53.608;10.004;2023-02-21T10:45:26;10.10;99.90
1578;DHT22;57623;53.608;10.004;2023-02-21T10:48:00;10.00;99.90
1578;DHT22;57623;53.608;10.004;2023-02-21T10:50:38;10.00;99.90
1578;DHT22;57623;53.608;10.004;2023-02-21T10:53:07;10.10;99.90
1578;DHT22;57623;53.608;10.004;2023-02-21T10:55:36;10.20;99.90
1578;DHT22;57623;53.608;10.004;2023-02-21T10:58:07;10.30;99.90
1578;DHT22;57623;53.608;10.004;2023-02-21T11:00:37;10.40;99.90
1578;DHT22;57623;53.608;10.004;2023-02-21T11:03:12;10.50;99.90
1578;DHT22;57623;53.608;10.004;2023-02-21T11:05:47;10.60;99.90
1578;DHT22;57623;53.608;10.004;2023-02-21T11:08:37;10.70;99.90
1578;DHT22;57623;53.608;10.004;2023-02-21T11:11:09;10.70;99.90
1578;DHT22;57623;53.608;10.004;2023-02-21T11:13:37;10.80;99.90
1578;DHT22;57623;53.608;10.004;2023-02-21T11:16:11;10.90;99.90
1578;DHT22;57623;53.608;10.004;2023-02-21T11:18:39;10.90;99.90
1578;DHT22;57623;53.608;10.004;2023-02-21T11:21:12;11.00;99.90
1578;DHT22;57623;53.608;10.004;2023-02-21T11:23:44;11.00;99.90
1578;DHT22;57623;53.608;10.004;2023-02-21T11:26:16;11.00;99.90
1578;DHT22;57623;53.608;10.004;2023-02-21T11:28:45;11.10;99.90
1578;DHT22;57623;53.608;10.004;2023-02-21T11:31:26;11.10;99.90
1578;DHT22;57623;53.608;10.004;2023-02-21T11:33:56;11.30;99.90
1578;DHT22;57623;53.608;10.004;2023-02-21T11:36:27;11.40;99.90
1578;DHT22;57623;53.608;10.004;2023-02-21T11:39:02;11.50;99.90
1578;DHT22;57623;53.608;10.004;2023-02-21T11:41:36;11.70;99.90
1578;DHT22;57623;53.608;10.004;2023-02-21T11:44:27;11.70;99.90
1578;DHT22;57623;53.608;10.004;2023-02-21T11:47:02;11.70;99.90
1578;DHT22;57623;53.608;10.004;2023-02-21T11:49:38;11.70;99.90
1578;DHT22;57623;53.608;10.004;2023-02-21T11:52:16;11.70;99.90
1578;DHT22;57623;53.608;10.004;2023-02-21T11:54:45;11.70;99.90
1578;DHT22;57623;53.608;10.004;2023-02-21T11:57:20;11.70;99.90
1578;DHT22;57623;53.608;10.004;2023-02-21T12:00:07;11.60;99.90
1578;DHT22;57623;53.608;10.004;2023-02-21T12:02:50;11.50;99.90
1578;DHT22;57623;53.608;10.004;2023-02-21T12:05:33;11.50;99.90
1578;DHT22;57623;53.608;10.004;2023-02-21T12:08:28;11.50;99.90
1578;DHT22;57623;53.608;10.004;2023-02-21T12:11:09;11.40;99.90
1578;DHT22;57623;53.608;10.004;2023-02-21T12:13:48;11.40;99.90
1578;DHT22;57623;53.608;10.004;2023-02-21T12:16:28;11.40;99.90
1578;DHT22;57623;53.608;10.004;2023-02-21T12:19:10;11.30;99.90
1578;DHT22;57623;53.608;10.004;2023-02-21T12:21:55;11.30;99.90
1578;DHT22;57623;53.608;10.004;2023-02-21T12:24:45;11.20;99.90
1578;DHT22;57623;53.608;10.004;2023-02-21T12:27:24;11.20;99.90
1578;DHT22;57623;53.608;10.004;2023-02-21T12:30:05;11.00;99.90
1578;DHT22;57623;53.608;10.004;2023-02-21T12:32:48;10.90;99.90
1578;DHT22;57623;53.608;10.004;2023-02-21T12:35:54;10.90;99.90
1578;DHT22;57623;53.608;10.004;2023-02-21T12:38:32;10.90;99.90
1578;DHT22;57623;53.608;10.004;2023-02-21T12:41:09;10.90;99.90
1578;DHT22;57623;53.608;10.004;2023-02-21T12:43:49;10.90;99.90
1578;DHT22;57623;53.608;10.004;2023-02-21T12:46:25;10.90;99.90
1578;DHT22;57623;53.608;10.004;2023-02-21T12:48:58;10.90;99.90
1578;DHT22;57623;53.608;10.004;2023-02-21T12:51:33;10.90;99.90
1578;DHT22;57623;53.608;10.004;2023-02-21T12:54:04;10.80;99.90
1578;DHT22;57623;53.608;10.004;2023-02-21T12:56:36;10.80;99.90
1578;DHT22;57623;53.608;10.004;2023-02-21T12:59:12;10.70;99.90
1578;DHT22;57623;53.608;10.004;2023-02-21T13:01:46;10.70;99.90
1578;DHT22;57623;53.608;10.004;2023-02-21T13:04:22;10.70;99.90
1578;DHT22;57623;53.608;10.004;2023-02-21T13:06:55;10.70;99.90
1578;DHT22;57623;53.608;10.004;2023-02-21T13:09:30;10.60;99.90
1578;DHT22;57623;53.608;10.004;2023-02-21T13:12:04;10.60;99.90
1578;DHT22;57623;53.608;10.004;2023-02-21T13:14:40;10.60;99.90
1578;DHT22;57623;53.608;10.004;2023-02-21T13:17:11;10.60;99.90
1578;DHT22;57623;53.608;10.004;2023-02-21T13:19:47;10.50;99.90
1578;DHT22;57623;53.608;10.004;2023-02-21T13:25:51;10.50;99.90
1578;DHT22;57623;53.608;10.004;2023-02-21T13:28:24;10.50;99.90
1578;DHT22;57623;53.608;10.004;2023-02-21T13:30:58;10.50;99.90
1578;DHT22;57623;53.608;10.004;2023-02-21T13:33:35;10.60;99.90
1578;DHT22;57623;53.608;10.004;2023-02-21T13:36:18;10.60;99.90
1578;DHT22;57623;53.608;10.004;2023-02-21T13:38:56;10.60;99.90
1578;DHT22;57623;53.608;10.004;2023-02-21T13:41:28;10.60;99.90
1578;DHT22;57623;53.608;10.004;2023-02-21T13:43:57;10.60;99.90
1578;DHT22;57623;53.608;10.004;2023-02-21T13:49:44;10.70;99.90
1578;DHT22;57623;53.608;10.004;2023-02-21T13:55:27;10.60;99.90
1578;DHT22;57623;53.608;10.004;2023-02-21T13:58:27;10.60;99.90
1578;DHT22;57623;53.608;10.004;2023-02-21T14:00:56;10.50;99.90
1578;DHT22;57623;53.608;10.004;2023-02-21T14:03:39;10.40;99.90
1578;DHT22;57623;53.608;10.004;2023-02-21T14:06:26;10.50;99.90
1578;DHT22;57623;53.608;10.004;2023-02-21T14:08:58;10.50;99.90
1578;DHT22;57623;53.608;10.004;2023-02-21T14:11:33;10.50;99.90
1578;DHT22;57623;53.608;10.004;2023-02-21T14:14:04;10.50;99.90
1578;DHT22;57623;53.608;10.004;2023-02-21T14:16:35;10.50;99.90
1578;DHT22;57623;53.608;10.004;2023-02-21T14:19:06;10.40;99.90
1578;DHT22;57623;53.608;10.004;2023-02-21T14:21:39;10.30;99.90
1578;DHT22;57623;53.608;10.004;2023-02-21T14:24:12;10.30;99.90
1578;DHT22;57623;53.608;10.004;2023-02-21T14:26:44;10.20;99.90
1578;DHT22;57623;53.608;10.004;2023-02-21T14:29:28;10.30;99.90
1578;DHT22;57623;53.608;10.004;2023-02-21T14:32:16;10.20;99.90
1578;DHT22;57623;53.608;10.004;2023-02-21T14:34:52;10.20;99.90
1578;DHT22;57623;53.608;10.004;2023-02-21T14:37:26;10.20;99.90
1578;DHT22;57623;53.608;10.004;2023-02-21T14:39:57;10.20;99.90
1578;DHT22;57623;53.608;10.004;2023-02-21T14:42:48;10.10;99.90
1578;DHT22;57623;53.608;10.004;2023-02-21T14:45:36;10.10;99.90
1578;DHT22;57623;53.608;10.004;2023-02-21T14:48:35;10.00;99.90
1578;DHT22;57623;53.608;10.004;2023-02-21T14:54:48;10.00;99.90
1578;DHT22;57623;53.608;10.004;2023-02-21T14:57:52;10.00;99.90
1578;DHT22;57623;53.608;10.004;2023-02-21T15:00:31;10.00;99.90
1578;DHT22;57623;53.608;10.004;2023-02-21T15:03:08;10.00;99.90
1578;DHT22;57623;53.608;10.004;2023-02-21T15:05:43;10.00;99.90
1578;DHT22;57623;53.608;10.004;2023-02-21T15:08:16;9.90;99.90
1578;DHT22;57623;53.608;10.004;2023-02-21T15:10:47;9.90;99.90
1578;DHT22;57623;53.608;10.004;2023-02-21T15:13:21;9.90;99.90
1578;DHT22;57623;53.608;10.004;2023-02-21T15:15:56;9.90;99.90
1578;DHT22;57623;53.608;10.004;2023-02-21T15:18:26;9.90;99.90
1578;DHT22;57623;53.608;10.004;2023-02-21T15:21:04;9.90;99.90
1578;DHT22;57623;53.608;10.004;2023-02-21T15:23:32;9.90;99.90
1578;DHT22;57623;53.608;10.004;2023-02-21T15:26:16;9.80;99.90
1578;DHT22;57623;53.608;10.004;2023-02-21T15:28:44;9.80;99.90
1578;DHT22;57623;53.608;10.004;2023-02-21T15:31:13;9.80;99.90
1578;DHT22;57623;53.608;10.004;2023-02-21T15:33:44;9.80;99.90
1578;DHT22;57623;53.608;10.004;2023-02-21T15:36:15;9.70;99.90
1578;DHT22;57623;53.608;10.004;2023-02-21T15:38:47;9.70;99.90
1578;DHT22;57623;53.608;10.004;2023-02-21T15:41:26;9.70;99.90
1578;DHT22;57623;53.608;10.004;2023-02-21T15:43:58;9.70;99.90
1578;DHT22;57623;53.608;10.004;2023-02-21T15:46:31;9.70;99.90
1578;DHT22;57623;53.608;10.004;2023-02-21T15:49:01;9.70;99.90
1578;DHT22;57623;53.608;10.004;2023-02-21T15:51:30;9.70;99.90
1578;DHT22;57623;53.608;10.004;2023-02-21T15:54:25;9.70;99.90
1578;DHT22;57623;53.608;10.004;2023-02-21T15:57:14;9.60;99.90
1578;DHT22;57623;53.608;10.004;2023-02-21T15:59:44;9.60;99.90
1578;DHT22;57623;53.608;10.004;2023-02-21T16:02:15;9.60;99.90
1578;DHT22;57623;53.608;10.004;2023-02-21T16:04:45;9.60;99.90
1578;DHT22;57623;53.608;10.004;2023-02-21T16:07:16;9.60;99.90
1578;DHT22;57623;53.608;10.004;2023-02-21T16:09:48;9.50;99.90
1578;DHT22;57623;53.608;10.004;2023-02-21T16:12:28;9.50;99.90
1578;DHT22;57623;53.608;10.004;2023-02-21T16:14:59;9.50;99.90
1578;DHT22;57623;53.608;10.004;2023-02-21T16:17:30;9.50;99.90
1578;DHT22;57623;53.608;10.004;2023-02-21T16:20:00;9.40;99.90
1578;DHT22;57623;53.608;10.004;2023-02-21T16:22:34;9.40;99.90
1578;DHT22;57623;53.608;10.004;2023-02-21T16:25:23;9.40;99.90
1578;DHT22;57623;53.608;10.004;2023-02-21T16:27:55;9.30;99.90
1578;DHT22;57623;53.608;10.004;2023-02-21T16:30:25;9.30;99.90
1578;DHT22;57623;53.608;10.004;2023-02-21T16:32:58;9.30;99.90
1578;DHT22;57623;53.608;10.004;2023-02-21T16:35:26;9.20;99.90
1578;DHT22;57623;53.608;10.004;2023-02-21T16:37:57;9.10;99.90
1578;DHT22;57623;53.608;10.004;2023-02-21T16:40:27;9.10;99.90
1578;DHT22;57623;53.608;10.004;2023-02-21T16:42:57;9.10;99.90
1578;DHT22;57623;53.608;10.004;2023-02-21T16:45:26;9.10;99.90
1578;DHT22;57623;53.608;10.004;2023-02-21T16:47:56;9.10;99.90